sensor_id;sensor_type;location;lat;lon;timestamp;P1;durP1;ratioP1;P2;durP2;ratioP2
64619;SDS011;51029;51.058;13.826;2023-01-29T00:01:53;20.23;;;14.67;;
64619;SDS011;51029;51.058;13.826;2023-01-29T00:04:20;23.00;;;15.27;;
64619;SDS011;51029;51.058;13.826;2023-01-29T00:06:45;23.20;;;15.40;;
64619;SDS011;51029;51.058;13.826;2023-01-29T00:09:11;23.17;;;15.50;;
64619;SDS011;51029;51.058;13.826;2023-01-29T00:11:37;19.83;;;14.93;;
64619;SDS011;51029;51.058;13.826;2023-01-29T00:14:03;21.80;;;14.80;;
64619;SDS011;51029;51.058;13.826;2023-01-29T00:16:29;22.80;;;13.70;;
64619;SDS011;51029;51.058;13.826;2023-01-29T00:18:54;21.47;;;13.97;;
64619;SDS011;51029;51.058;13.826;2023-01-29T00:21:20;19.53;;;13.90;;
64619;SDS011;51029;51.058;13.826;2023-01-29T00:23:47;15.67;;;11.47;;
64619;SDS011;51029;51.058;13.826;2023-01-29T00:26:13;17.97;;;12.80;;
64619;SDS011;51029;51.058;13.826;2023-01-29T00:28:39;16.67;;;12.10;;
64619;SDS011;51029;51.058;13.826;2023-01-29T00:31:09;17.13;;;12.30;;
64619;SDS011;51029;51.058;13.826;2023-01-29T00:33:35;19.20;;;12.97;;
64619;SDS011;51029;51.058;13.826;2023-01-29T00:36:02;15.07;;;11.63;;
64619;SDS011;51029;51.058;13.826;2023-01-29T00:38:29;13.03;;;10.60;;
64619;SDS011;51029;51.058;13.826;2023-01-29T00:40:54;14.43;;;11.53;;
64619;SDS011;51029;51.058;13.826;2023-01-29T00:43:38;12.40;;;9.30;;
64619;SDS011;51029;51.058;13.826;2023-01-29T00:46:22;11.07;;;8.97;;
64619;SDS011;51029;51.058;13.826;2023-01-29T00:48:48;10.37;;;8.50;;
64619;SDS011;51029;51.058;13.826;2023-01-29T00:51:13;10.07;;;8.20;;
64619;SDS011;51029;51.058;13.826;2023-01-29T00:53:39;8.80;;;7.60;;
64619;SDS011;51029;51.058;13.826;2023-01-29T00:56:04;8.23;;;7.27;;
64619;SDS011;51029;51.058;13.826;2023-01-29T00:58:30;10.27;;;8.00;;
64619;SDS011;51029;51.058;13.826;2023-01-29T01:00:59;10.33;;;7.27;;
64619;SDS011;51029;51.058;13.826;2023-01-29T01:03:25;11.50;;;7.80;;
64619;SDS011;51029;51.058;13.826;2023-01-29T01:06:01;9.37;;;7.70;;
64619;SDS011;51029;51.058;13.826;2023-01-29T01:08:30;10.83;;;7.87;;
64619;SDS011;51029;51.058;13.826;2023-01-29T01:11:22;10.90;;;7.63;;
64619;SDS011;51029;51.058;13.826;2023-01-29T01:13:47;10.57;;;8.07;;
64619;SDS011;51029;51.058;13.826;2023-01-29T01:16:13;10.37;;;7.53;;
64619;SDS011;51029;51.058;13.826;2023-01-29T01:18:40;10.57;;;7.90;;
64619;SDS011;51029;51.058;13.826;2023-01-29T01:21:06;9.97;;;8.20;;
64619;SDS011;51029;51.058;13.826;2023-01-29T01:23:32;10.97;;;8.13;;
64619;SDS011;51029;51.058;13.826;2023-01-29T01:25:58;10.17;;;7.90;;
64619;SDS011;51029;51.058;13.826;2023-01-29T01:28:24;10.77;;;7.67;;
64619;SDS011;51029;51.058;13.826;2023-01-29T01:30:50;10.97;;;8.20;;
64619;SDS011;51029;51.058;13.826;2023-01-29T01:33:15;10.70;;;8.57;;
64619;SDS011;51029;51.058;13.826;2023-01-29T01:35:41;11.73;;;8.70;;
64619;SDS011;51029;51.058;13.826;2023-01-29T01:38:06;9.90;;;8.27;;
64619;SDS011;51029;51.058;13.826;2023-01-29T01:40:32;9.27;;;8.20;;
64619;SDS011;51029;51.058;13.826;2023-01-29T01:42:58;9.47;;;8.17;;
64619;SDS011;51029;51.058;13.826;2023-01-29T01:45:31;10.37;;;8.03;;
64619;SDS011;51029;51.058;13.826;2023-01-29T01:48:16;9.37;;;8.33;;
64619;SDS011;51029;51.058;13.826;2023-01-29T01:50:49;11.60;;;8.97;;
64619;SDS011;51029;51.058;13.826;2023-01-29T01:53:33;12.57;;;8.93;;
64619;SDS011;51029;51.058;13.826;2023-01-29T01:56:04;10.77;;;8.77;;
64619;SDS011;51029;51.058;13.826;2023-01-29T01:58:34;9.20;;;8.30;;
64619;SDS011;51029;51.058;13.826;2023-01-29T02:01:03;10.97;;;9.37;;
64619;SDS011;51029;51.058;13.826;2023-01-29T02:03:32;11.43;;;9.77;;
64619;SDS011;51029;51.058;13.826;2023-01-29T02:06:21;13.50;;;9.67;;
64619;SDS011;51029;51.058;13.826;2023-01-29T02:09:08;10.47;;;8.80;;
64619;SDS011;51029;51.058;13.826;2023-01-29T02:11:57;13.40;;;8.73;;
64619;SDS011;51029;51.058;13.826;2023-01-29T02:14:23;10.37;;;8.67;;
64619;SDS011;51029;51.058;13.826;2023-01-29T02:16:49;11.17;;;9.97;;
64619;SDS011;51029;51.058;13.826;2023-01-29T02:19:16;11.10;;;10.00;;
64619;SDS011;51029;51.058;13.826;2023-01-29T02:22:07;11.93;;;9.57;;
64619;SDS011;51029;51.058;13.826;2023-01-29T02:25:07;12.67;;;10.00;;
64619;SDS011;51029;51.058;13.826;2023-01-29T02:30:46;12.50;;;10.57;;
64619;SDS011;51029;51.058;13.826;2023-01-29T02:38:59;13.67;;;11.17;;
64619;SDS011;51029;51.058;13.826;2023-01-29T02:41:30;14.17;;;11.67;;
64619;SDS011;51029;51.058;13.826;2023-01-29T02:44:19;13.80;;;11.00;;
64619;SDS011;51029;51.058;13.826;2023-01-29T02:46:56;12.17;;;10.20;;
64619;SDS011;51029;51.058;13.826;2023-01-29T02:49:37;11.63;;;9.53;;
64619;SDS011;51029;51.058;13.826;2023-01-29T02:52:17;12.80;;;10.97;;
64619;SDS011;51029;51.058;13.826;2023-01-29T02:55:06;13.53;;;11.60;;
64619;SDS011;51029;51.058;13.826;2023-01-29T02:57:42;12.30;;;10.07;;
64619;SDS011;51029;51.058;13.826;2023-01-29T03:00:14;13.07;;;11.30;;
64619;SDS011;51029;51.058;13.826;2023-01-29T03:02:45;13.67;;;12.07;;
64619;SDS011;51029;51.058;13.826;2023-01-29T03:05:13;14.63;;;11.97;;
64619;SDS011;51029;51.058;13.826;2023-01-29T03:07:44;14.57;;;12.07;;
64619;SDS011;51029;51.058;13.826;2023-01-29T03:10:21;13.90;;;11.13;;
64619;SDS011;51029;51.058;13.826;2023-01-29T03:12:59;14.67;;;12.27;;
64619;SDS011;51029;51.058;13.826;2023-01-29T03:15:51;12.53;;;11.23;;
64619;SDS011;51029;51.058;13.826;2023-01-29T03:18:25;14.83;;;11.77;;
64619;SDS011;51029;51.058;13.826;2023-01-29T03:20:56;14.10;;;11.07;;
64619;SDS011;51029;51.058;13.826;2023-01-29T03:23:28;16.13;;;12.07;;
64619;SDS011;51029;51.058;13.826;2023-01-29T03:26:16;15.37;;;12.33;;
64619;SDS011;51029;51.058;13.826;2023-01-29T03:29:02;15.90;;;12.60;;
64619;SDS011;51029;51.058;13.826;2023-01-29T03:31:49;16.17;;;12.77;;
64619;SDS011;51029;51.058;13.826;2023-01-29T03:34:27;12.63;;;10.07;;
64619;SDS011;51029;51.058;13.826;2023-01-29T03:37:02;13.47;;;11.40;;
64619;SDS011;51029;51.058;13.826;2023-01-29T03:39:32;15.20;;;12.33;;
64619;SDS011;51029;51.058;13.826;2023-01-29T03:52:50;12.73;;;11.23;;
64619;SDS011;51029;51.058;13.826;2023-01-29T03:55:55;13.80;;;10.50;;
64619;SDS011;51029;51.058;13.826;2023-01-29T03:58:29;13.63;;;11.27;;
64619;SDS011;51029;51.058;13.826;2023-01-29T04:01:15;13.97;;;10.73;;
64619;SDS011;51029;51.058;13.826;2023-01-29T04:03:58;12.13;;;10.70;;
64619;SDS011;51029;51.058;13.826;2023-01-29T04:06:37;12.93;;;10.37;;
64619;SDS011;51029;51.058;13.826;2023-01-29T04:09:09;13.33;;;10.30;;
64619;SDS011;51029;51.058;13.826;2023-01-29T04:11:51;12.53;;;10.13;;
64619;SDS011;51029;51.058;13.826;2023-01-29T04:14:24;12.60;;;11.10;;
64619;SDS011;51029;51.058;13.826;2023-01-29T04:16:51;12.07;;;10.77;;
64619;SDS011;51029;51.058;13.826;2023-01-29T04:19:19;14.07;;;11.13;;
64619;SDS011;51029;51.058;13.826;2023-01-29T04:21:45;14.20;;;11.63;;
64619;SDS011;51029;51.058;13.826;2023-01-29T04:24:14;14.07;;;11.47;;
64619;SDS011;51029;51.058;13.826;2023-01-29T04:29:22;14.70;;;11.43;;
64619;SDS011;51029;51.058;13.826;2023-01-29T04:34:50;16.47;;;11.13;;
64619;SDS011;51029;51.058;13.826;2023-01-29T04:40:03;13.47;;;10.70;;
64619;SDS011;51029;51.058;13.826;2023-01-29T04:42:43;14.13;;;10.87;;
64619;SDS011;51029;51.058;13.826;2023-01-29T04:45:52;13.83;;;11.37;;
64619;SDS011;51029;51.058;13.826;2023-01-29T04:51:18;14.40;;;10.87;;
64619;SDS011;51029;51.058;13.826;2023-01-29T04:56:35;16.77;;;11.23;;
64619;SDS011;51029;51.058;13.826;2023-01-29T04:59:17;13.97;;;10.97;;
64619;SDS011;51029;51.058;13.826;2023-01-29T05:01:48;15.23;;;11.43;;
64619;SDS011;51029;51.058;13.826;2023-01-29T05:04:14;13.10;;;11.47;;
64619;SDS011;51029;51.058;13.826;2023-01-29T05:06:43;13.53;;;11.13;;
64619;SDS011;51029;51.058;13.826;2023-01-29T05:09:11;13.83;;;11.30;;
64619;SDS011;51029;51.058;13.826;2023-01-29T05:11:39;14.60;;;11.73;;
64619;SDS011;51029;51.058;13.826;2023-01-29T05:14:06;14.90;;;11.70;;
64619;SDS011;51029;51.058;13.826;2023-01-29T05:16:42;13.00;;;11.53;;
64619;SDS011;51029;51.058;13.826;2023-01-29T05:19:12;16.03;;;12.27;;
64619;SDS011;51029;51.058;13.826;2023-01-29T05:21:39;15.80;;;12.00;;
64619;SDS011;51029;51.058;13.826;2023-01-29T05:26:37;12.10;;;10.77;;
64619;SDS011;51029;51.058;13.826;2023-01-29T05:29:21;13.70;;;11.73;;
64619;SDS011;51029;51.058;13.826;2023-01-29T05:31:47;14.47;;;11.33;;
64619;SDS011;51029;51.058;13.826;2023-01-29T05:34:12;15.27;;;12.13;;
64619;SDS011;51029;51.058;13.826;2023-01-29T05:36:38;15.00;;;11.87;;
64619;SDS011;51029;51.058;13.826;2023-01-29T05:39:03;14.53;;;11.50;;
64619;SDS011;51029;51.058;13.826;2023-01-29T05:41:29;14.67;;;12.17;;
64619;SDS011;51029;51.058;13.826;2023-01-29T05:43:54;15.00;;;11.83;;
64619;SDS011;51029;51.058;13.826;2023-01-29T05:46:20;14.37;;;11.80;;
64619;SDS011;51029;51.058;13.826;2023-01-29T05:48:45;16.10;;;12.70;;
64619;SDS011;51029;51.058;13.826;2023-01-29T05:51:11;14.27;;;11.27;;
64619;SDS011;51029;51.058;13.826;2023-01-29T05:53:36;19.03;;;13.67;;
64619;SDS011;51029;51.058;13.826;2023-01-29T05:56:03;16.37;;;13.27;;
64619;SDS011;51029;51.058;13.826;2023-01-29T05:58:32;19.20;;;14.03;;
64619;SDS011;51029;51.058;13.826;2023-01-29T06:01:06;18.03;;;13.80;;
64619;SDS011;51029;51.058;13.826;2023-01-29T06:03:42;15.43;;;12.93;;
64619;SDS011;51029;51.058;13.826;2023-01-29T06:06:08;17.27;;;14.03;;
64619;SDS011;51029;51.058;13.826;2023-01-29T06:08:34;16.30;;;12.90;;
64619;SDS011;51029;51.058;13.826;2023-01-29T06:10:59;16.83;;;12.87;;
64619;SDS011;51029;51.058;13.826;2023-01-29T06:13:25;16.67;;;12.23;;
64619;SDS011;51029;51.058;13.826;2023-01-29T06:15:50;16.63;;;12.73;;
64619;SDS011;51029;51.058;13.826;2023-01-29T06:18:16;16.53;;;12.80;;
64619;SDS011;51029;51.058;13.826;2023-01-29T06:20:42;17.97;;;12.63;;
64619;SDS011;51029;51.058;13.826;2023-01-29T06:23:07;14.83;;;12.40;;
64619;SDS011;51029;51.058;13.826;2023-01-29T06:25:33;17.27;;;13.20;;
64619;SDS011;51029;51.058;13.826;2023-01-29T06:27:58;14.97;;;12.10;;
64619;SDS011;51029;51.058;13.826;2023-01-29T06:30:24;18.03;;;12.87;;
64619;SDS011;51029;51.058;13.826;2023-01-29T06:32:49;17.53;;;13.60;;
64619;SDS011;51029;51.058;13.826;2023-01-29T06:35:15;18.03;;;12.63;;
64619;SDS011;51029;51.058;13.826;2023-01-29T06:37:40;16.90;;;12.30;;
64619;SDS011;51029;51.058;13.826;2023-01-29T06:40:06;19.47;;;13.27;;
64619;SDS011;51029;51.058;13.826;2023-01-29T06:42:34;19.50;;;13.03;;
64619;SDS011;51029;51.058;13.826;2023-01-29T06:44:59;15.53;;;12.43;;
64619;SDS011;51029;51.058;13.826;2023-01-29T06:47:25;14.20;;;11.90;;
64619;SDS011;51029;51.058;13.826;2023-01-29T06:49:51;16.23;;;11.67;;
64619;SDS011;51029;51.058;13.826;2023-01-29T06:52:17;16.17;;;11.77;;
64619;SDS011;51029;51.058;13.826;2023-01-29T06:54:43;13.90;;;11.50;;
64619;SDS011;51029;51.058;13.826;2023-01-29T06:57:08;14.73;;;12.27;;
64619;SDS011;51029;51.058;13.826;2023-01-29T06:59:34;14.50;;;11.97;;
64619;SDS011;51029;51.058;13.826;2023-01-29T07:01:59;16.47;;;12.40;;
64619;SDS011;51029;51.058;13.826;2023-01-29T07:04:25;15.03;;;12.17;;
64619;SDS011;51029;51.058;13.826;2023-01-29T07:06:50;15.03;;;12.03;;
64619;SDS011;51029;51.058;13.826;2023-01-29T07:09:16;15.33;;;12.07;;
64619;SDS011;51029;51.058;13.826;2023-01-29T07:11:41;15.70;;;12.40;;
64619;SDS011;51029;51.058;13.826;2023-01-29T07:14:07;14.33;;;12.83;;
64619;SDS011;51029;51.058;13.826;2023-01-29T07:16:32;13.97;;;12.37;;
64619;SDS011;51029;51.058;13.826;2023-01-29T07:18:58;15.40;;;11.63;;
64619;SDS011;51029;51.058;13.826;2023-01-29T07:21:24;15.77;;;12.37;;
64619;SDS011;51029;51.058;13.826;2023-01-29T07:23:49;14.97;;;12.80;;
64619;SDS011;51029;51.058;13.826;2023-01-29T07:26:15;14.33;;;12.23;;
64619;SDS011;51029;51.058;13.826;2023-01-29T07:28:40;14.57;;;11.63;;
64619;SDS011;51029;51.058;13.826;2023-01-29T07:31:06;16.53;;;12.50;;
64619;SDS011;51029;51.058;13.826;2023-01-29T07:33:33;15.73;;;11.80;;
64619;SDS011;51029;51.058;13.826;2023-01-29T07:35:59;13.37;;;11.97;;
64619;SDS011;51029;51.058;13.826;2023-01-29T07:38:24;13.30;;;11.87;;
64619;SDS011;51029;51.058;13.826;2023-01-29T07:40:50;14.77;;;12.73;;
64619;SDS011;51029;51.058;13.826;2023-01-29T07:43:17;15.13;;;12.00;;
64619;SDS011;51029;51.058;13.826;2023-01-29T07:45:42;14.83;;;11.67;;
64619;SDS011;51029;51.058;13.826;2023-01-29T07:48:09;15.63;;;12.93;;
64619;SDS011;51029;51.058;13.826;2023-01-29T07:50:36;16.87;;;12.40;;
64619;SDS011;51029;51.058;13.826;2023-01-29T07:53:02;15.37;;;11.90;;
64619;SDS011;51029;51.058;13.826;2023-01-29T07:55:28;16.53;;;12.33;;
64619;SDS011;51029;51.058;13.826;2023-01-29T07:57:57;14.00;;;12.37;;
64619;SDS011;51029;51.058;13.826;2023-01-29T08:00:25;14.53;;;12.93;;
64619;SDS011;51029;51.058;13.826;2023-01-29T08:02:51;13.60;;;11.73;;
64619;SDS011;51029;51.058;13.826;2023-01-29T08:05:16;13.57;;;11.40;;
64619;SDS011;51029;51.058;13.826;2023-01-29T08:07:42;13.97;;;12.20;;
64619;SDS011;51029;51.058;13.826;2023-01-29T08:10:08;15.40;;;12.53;;
64619;SDS011;51029;51.058;13.826;2023-01-29T08:12:34;14.33;;;12.07;;
64619;SDS011;51029;51.058;13.826;2023-01-29T08:14:59;14.40;;;11.37;;
64619;SDS011;51029;51.058;13.826;2023-01-29T08:17:25;14.07;;;11.97;;
64619;SDS011;51029;51.058;13.826;2023-01-29T08:19:50;15.43;;;11.60;;
64619;SDS011;51029;51.058;13.826;2023-01-29T08:22:16;20.73;;;11.80;;
64619;SDS011;51029;51.058;13.826;2023-01-29T08:24:41;13.20;;;11.30;;
64619;SDS011;51029;51.058;13.826;2023-01-29T08:27:07;15.43;;;12.47;;
64619;SDS011;51029;51.058;13.826;2023-01-29T08:29:33;16.10;;;11.70;;
64619;SDS011;51029;51.058;13.826;2023-01-29T08:31:59;17.97;;;11.63;;
64619;SDS011;51029;51.058;13.826;2023-01-29T08:34:25;15.00;;;11.40;;
64619;SDS011;51029;51.058;13.826;2023-01-29T08:36:50;16.03;;;11.70;;
64619;SDS011;51029;51.058;13.826;2023-01-29T08:39:17;16.07;;;11.37;;
64619;SDS011;51029;51.058;13.826;2023-01-29T08:41:43;19.17;;;13.00;;
64619;SDS011;51029;51.058;13.826;2023-01-29T08:44:08;18.47;;;12.63;;
64619;SDS011;51029;51.058;13.826;2023-01-29T08:46:35;15.20;;;11.53;;
64619;SDS011;51029;51.058;13.826;2023-01-29T08:49:01;14.67;;;11.53;;
64619;SDS011;51029;51.058;13.826;2023-01-29T08:51:26;14.10;;;11.33;;
64619;SDS011;51029;51.058;13.826;2023-01-29T08:53:52;14.07;;;11.60;;
64619;SDS011;51029;51.058;13.826;2023-01-29T08:56:17;14.60;;;11.47;;
64619;SDS011;51029;51.058;13.826;2023-01-29T08:58:43;13.67;;;11.13;;
64619;SDS011;51029;51.058;13.826;2023-01-29T09:01:09;14.10;;;12.30;;
64619;SDS011;51029;51.058;13.826;2023-01-29T09:03:36;14.67;;;11.07;;
64619;SDS011;51029;51.058;13.826;2023-01-29T09:06:05;14.93;;;10.83;;
64619;SDS011;51029;51.058;13.826;2023-01-29T09:08:31;12.63;;;11.33;;
64619;SDS011;51029;51.058;13.826;2023-01-29T09:10:57;13.27;;;11.23;;
64619;SDS011;51029;51.058;13.826;2023-01-29T09:13:24;18.37;;;12.37;;
64619;SDS011;51029;51.058;13.826;2023-01-29T09:15:49;13.27;;;11.50;;
64619;SDS011;51029;51.058;13.826;2023-01-29T09:18:15;14.47;;;11.77;;
64619;SDS011;51029;51.058;13.826;2023-01-29T09:20:40;13.83;;;11.67;;
64619;SDS011;51029;51.058;13.826;2023-01-29T09:23:07;12.77;;;11.47;;
64619;SDS011;51029;51.058;13.826;2023-01-29T09:25:34;12.47;;;11.13;;
64619;SDS011;51029;51.058;13.826;2023-01-29T09:28:00;14.63;;;12.50;;
64619;SDS011;51029;51.058;13.826;2023-01-29T09:30:25;13.63;;;11.67;;
64619;SDS011;51029;51.058;13.826;2023-01-29T09:32:51;14.77;;;11.60;;
64619;SDS011;51029;51.058;13.826;2023-01-29T09:35:16;13.43;;;11.43;;
64619;SDS011;51029;51.058;13.826;2023-01-29T09:37:42;12.13;;;10.93;;
64619;SDS011;51029;51.058;13.826;2023-01-29T09:40:32;13.47;;;12.07;;
64619;SDS011;51029;51.058;13.826;2023-01-29T09:43:13;13.03;;;11.13;;
64619;SDS011;51029;51.058;13.826;2023-01-29T09:45:44;13.07;;;11.03;;
64619;SDS011;51029;51.058;13.826;2023-01-29T09:48:17;12.20;;;10.80;;
64619;SDS011;51029;51.058;13.826;2023-01-29T09:50:46;13.27;;;11.93;;
64619;SDS011;51029;51.058;13.826;2023-01-29T09:53:20;12.57;;;11.27;;
64619;SDS011;51029;51.058;13.826;2023-01-29T09:56:07;12.90;;;11.47;;
64619;SDS011;51029;51.058;13.826;2023-01-29T09:58:38;18.47;;;11.40;;
64619;SDS011;51029;51.058;13.826;2023-01-29T10:01:16;13.10;;;11.57;;
64619;SDS011;51029;51.058;13.826;2023-01-29T10:03:54;12.77;;;11.47;;
64619;SDS011;51029;51.058;13.826;2023-01-29T10:14:48;14.93;;;11.83;;
64619;SDS011;51029;51.058;13.826;2023-01-29T10:17:34;18.70;;;14.20;;
64619;SDS011;51029;51.058;13.826;2023-01-29T10:25:47;12.70;;;11.30;;
64619;SDS011;51029;51.058;13.826;2023-01-29T10:28:15;13.03;;;11.40;;
64619;SDS011;51029;51.058;13.826;2023-01-29T10:30:49;12.40;;;11.10;;
64619;SDS011;51029;51.058;13.826;2023-01-29T10:33:21;12.67;;;11.10;;
64619;SDS011;51029;51.058;13.826;2023-01-29T10:36:01;17.57;;;11.77;;
64619;SDS011;51029;51.058;13.826;2023-01-29T10:46:45;14.57;;;11.37;;
64619;SDS011;51029;51.058;13.826;2023-01-29T10:52:09;14.53;;;12.17;;
64619;SDS011;51029;51.058;13.826;2023-01-29T10:54:52;13.73;;;12.27;;
64619;SDS011;51029;51.058;13.826;2023-01-29T10:57:47;16.73;;;12.60;;
64619;SDS011;51029;51.058;13.826;2023-01-29T11:00:27;14.10;;;12.30;;
64619;SDS011;51029;51.058;13.826;2023-01-29T11:02:56;15.90;;;12.23;;
64619;SDS011;51029;51.058;13.826;2023-01-29T11:05:53;13.33;;;11.60;;
64619;SDS011;51029;51.058;13.826;2023-01-29T11:08:23;17.20;;;12.43;;
64619;SDS011;51029;51.058;13.826;2023-01-29T11:10:56;16.70;;;13.00;;
64619;SDS011;51029;51.058;13.826;2023-01-29T11:13:31;17.80;;;12.77;;
64619;SDS011;51029;51.058;13.826;2023-01-29T11:16:12;15.87;;;12.87;;
64619;SDS011;51029;51.058;13.826;2023-01-29T11:18:48;17.20;;;13.57;;
64619;SDS011;51029;51.058;13.826;2023-01-29T11:21:15;15.10;;;13.50;;
64619;SDS011;51029;51.058;13.826;2023-01-29T11:23:41;13.93;;;12.43;;
64619;SDS011;51029;51.058;13.826;2023-01-29T11:26:07;18.40;;;13.20;;
64619;SDS011;51029;51.058;13.826;2023-01-29T11:28:36;18.03;;;13.70;;
64619;SDS011;51029;51.058;13.826;2023-01-29T11:31:23;16.10;;;13.63;;
64619;SDS011;51029;51.058;13.826;2023-01-29T11:33:51;16.23;;;12.30;;
64619;SDS011;51029;51.058;13.826;2023-01-29T11:39:18;14.33;;;12.03;;
64619;SDS011;51029;51.058;13.826;2023-01-29T11:44:45;17.80;;;12.90;;
64619;SDS011;51029;51.058;13.826;2023-01-29T11:49:38;14.43;;;11.30;;
64619;SDS011;51029;51.058;13.826;2023-01-29T11:52:09;16.17;;;13.90;;
64619;SDS011;51029;51.058;13.826;2023-01-29T11:54:43;13.37;;;11.97;;
64619;SDS011;51029;51.058;13.826;2023-01-29T11:57:28;13.63;;;12.23;;
64619;SDS011;51029;51.058;13.826;2023-01-29T12:00:05;15.13;;;12.60;;
64619;SDS011;51029;51.058;13.826;2023-01-29T12:02:42;12.57;;;11.27;;
64619;SDS011;51029;51.058;13.826;2023-01-29T12:05:13;12.57;;;11.27;;
64619;SDS011;51029;51.058;13.826;2023-01-29T12:07:41;13.80;;;11.17;;
64619;SDS011;51029;51.058;13.826;2023-01-29T12:10:29;14.47;;;12.47;;
64619;SDS011;51029;51.058;13.826;2023-01-29T12:13:03;14.83;;;12.43;;
64619;SDS011;51029;51.058;13.826;2023-01-29T12:15:40;15.00;;;11.60;;
64619;SDS011;51029;51.058;13.826;2023-01-29T12:18:31;15.17;;;11.53;;
64619;SDS011;51029;51.058;13.826;2023-01-29T12:21:03;14.07;;;12.20;;
64619;SDS011;51029;51.058;13.826;2023-01-29T12:26:34;15.07;;;12.10;;
64619;SDS011;51029;51.058;13.826;2023-01-29T12:29:07;14.30;;;12.17;;
64619;SDS011;51029;51.058;13.826;2023-01-29T12:31:56;13.50;;;11.87;;
64619;SDS011;51029;51.058;13.826;2023-01-29T12:40:04;25.67;;;14.03;;
64619;SDS011;51029;51.058;13.826;2023-01-29T12:42:36;23.03;;;12.23;;
64619;SDS011;51029;51.058;13.826;2023-01-29T12:45:07;16.57;;;12.23;;
64619;SDS011;51029;51.058;13.826;2023-01-29T12:47:48;18.53;;;12.80;;
64619;SDS011;51029;51.058;13.826;2023-01-29T12:50:20;14.70;;;12.60;;
64619;SDS011;51029;51.058;13.826;2023-01-29T12:52:57;14.57;;;12.00;;
64619;SDS011;51029;51.058;13.826;2023-01-29T12:55:31;15.40;;;11.47;;
64619;SDS011;51029;51.058;13.826;2023-01-29T12:58:04;16.23;;;12.03;;
64619;SDS011;51029;51.058;13.826;2023-01-29T13:00:39;15.40;;;12.23;;
64619;SDS011;51029;51.058;13.826;2023-01-29T13:08:29;14.20;;;12.30;;
64619;SDS011;51029;51.058;13.826;2023-01-29T13:11:00;14.33;;;11.93;;
64619;SDS011;51029;51.058;13.826;2023-01-29T13:13:36;15.27;;;12.03;;
64619;SDS011;51029;51.058;13.826;2023-01-29T13:16:09;16.80;;;12.70;;
64619;SDS011;51029;51.058;13.826;2023-01-29T13:18:45;15.13;;;12.43;;
64619;SDS011;51029;51.058;13.826;2023-01-29T13:21:18;21.87;;;13.00;;
64619;SDS011;51029;51.058;13.826;2023-01-29T13:23:51;19.67;;;14.57;;
64619;SDS011;51029;51.058;13.826;2023-01-29T13:26:20;19.43;;;12.87;;
64619;SDS011;51029;51.058;13.826;2023-01-29T13:28:47;16.63;;;12.20;;
64619;SDS011;51029;51.058;13.826;2023-01-29T13:36:49;15.70;;;12.07;;
64619;SDS011;51029;51.058;13.826;2023-01-29T13:39:26;16.07;;;11.20;;
64619;SDS011;51029;51.058;13.826;2023-01-29T13:41:54;16.37;;;12.30;;
64619;SDS011;51029;51.058;13.826;2023-01-29T13:44:31;15.40;;;11.93;;
64619;SDS011;51029;51.058;13.826;2023-01-29T13:47:00;29.57;;;13.40;;
64619;SDS011;51029;51.058;13.826;2023-01-29T13:52:18;14.93;;;12.20;;
64619;SDS011;51029;51.058;13.826;2023-01-29T13:54:58;17.00;;;12.27;;
64619;SDS011;51029;51.058;13.826;2023-01-29T14:00:54;21.10;;;12.50;;
64619;SDS011;51029;51.058;13.826;2023-01-29T14:10:38;27.37;;;18.87;;
64619;SDS011;51029;51.058;13.826;2023-01-29T14:15:43;16.17;;;11.80;;
64619;SDS011;51029;51.058;13.826;2023-01-29T14:23:36;17.37;;;12.50;;
64619;SDS011;51029;51.058;13.826;2023-01-29T14:26:08;16.93;;;13.20;;
64619;SDS011;51029;51.058;13.826;2023-01-29T14:28:44;20.57;;;12.93;;
64619;SDS011;51029;51.058;13.826;2023-01-29T14:31:29;21.90;;;14.83;;
64619;SDS011;51029;51.058;13.826;2023-01-29T14:34:12;16.60;;;12.17;;
64619;SDS011;51029;51.058;13.826;2023-01-29T14:36:48;15.13;;;11.77;;
64619;SDS011;51029;51.058;13.826;2023-01-29T14:39:33;15.77;;;12.03;;
64619;SDS011;51029;51.058;13.826;2023-01-29T14:55:41;15.60;;;11.87;;
64619;SDS011;51029;51.058;13.826;2023-01-29T15:00:53;15.67;;;11.93;;
64619;SDS011;51029;51.058;13.826;2023-01-29T15:06:01;13.90;;;10.93;;
64619;SDS011;51029;51.058;13.826;2023-01-29T15:08:31;16.13;;;13.33;;
64619;SDS011;51029;51.058;13.826;2023-01-29T15:11:11;18.53;;;12.80;;
64619;SDS011;51029;51.058;13.826;2023-01-29T15:16:45;17.43;;;12.13;;
64619;SDS011;51029;51.058;13.826;2023-01-29T15:19:26;16.10;;;11.63;;
64619;SDS011;51029;51.058;13.826;2023-01-29T15:22:13;14.33;;;11.27;;
64619;SDS011;51029;51.058;13.826;2023-01-29T15:24:39;15.57;;;11.37;;
64619;SDS011;51029;51.058;13.826;2023-01-29T15:27:10;14.23;;;10.97;;
64619;SDS011;51029;51.058;13.826;2023-01-29T15:29:41;14.63;;;11.73;;
64619;SDS011;51029;51.058;13.826;2023-01-29T15:32:15;13.77;;;10.57;;
64619;SDS011;51029;51.058;13.826;2023-01-29T15:34:51;15.60;;;11.40;;
64619;SDS011;51029;51.058;13.826;2023-01-29T15:37:31;14.47;;;9.97;;
64619;SDS011;51029;51.058;13.826;2023-01-29T15:39:59;15.80;;;9.90;;
64619;SDS011;51029;51.058;13.826;2023-01-29T15:42:26;11.53;;;9.40;;
64619;SDS011;51029;51.058;13.826;2023-01-29T15:44:53;12.03;;;8.90;;
64619;SDS011;51029;51.058;13.826;2023-01-29T15:47:23;12.47;;;9.30;;
64619;SDS011;51029;51.058;13.826;2023-01-29T15:49:54;13.70;;;9.83;;
64619;SDS011;51029;51.058;13.826;2023-01-29T15:52:30;11.10;;;9.17;;
64619;SDS011;51029;51.058;13.826;2023-01-29T15:55:03;13.43;;;9.73;;
64619;SDS011;51029;51.058;13.826;2023-01-29T15:57:33;12.00;;;9.53;;
64619;SDS011;51029;51.058;13.826;2023-01-29T16:00:01;13.13;;;10.50;;
64619;SDS011;51029;51.058;13.826;2023-01-29T16:05:01;11.03;;;8.63;;
64619;SDS011;51029;51.058;13.826;2023-01-29T16:07:35;10.93;;;9.00;;
64619;SDS011;51029;51.058;13.826;2023-01-29T16:10:02;12.07;;;9.23;;
64619;SDS011;51029;51.058;13.826;2023-01-29T16:12:28;12.50;;;9.43;;
64619;SDS011;51029;51.058;13.826;2023-01-29T16:14:56;15.63;;;10.77;;
64619;SDS011;51029;51.058;13.826;2023-01-29T16:17:23;23.63;;;15.13;;
64619;SDS011;51029;51.058;13.826;2023-01-29T16:19:59;28.10;;;16.30;;
64619;SDS011;51029;51.058;13.826;2023-01-29T16:22:31;23.17;;;15.80;;
64619;SDS011;51029;51.058;13.826;2023-01-29T16:25:03;21.10;;;14.67;;
64619;SDS011;51029;51.058;13.826;2023-01-29T16:27:31;25.83;;;13.70;;
64619;SDS011;51029;51.058;13.826;2023-01-29T16:29:58;15.10;;;10.30;;
64619;SDS011;51029;51.058;13.826;2023-01-29T16:32:26;24.87;;;17.33;;
64619;SDS011;51029;51.058;13.826;2023-01-29T16:34:54;15.60;;;12.90;;
64619;SDS011;51029;51.058;13.826;2023-01-29T16:37:24;21.37;;;14.80;;
64619;SDS011;51029;51.058;13.826;2023-01-29T16:39:52;19.90;;;14.10;;
64619;SDS011;51029;51.058;13.826;2023-01-29T16:42:19;18.47;;;13.27;;
64619;SDS011;51029;51.058;13.826;2023-01-29T16:44:50;23.23;;;15.70;;
64619;SDS011;51029;51.058;13.826;2023-01-29T16:47:21;22.37;;;16.17;;
64619;SDS011;51029;51.058;13.826;2023-01-29T16:52:53;15.20;;;9.67;;